Time;durP1;ratioP1;P1;durP2;ratioP2;P2;SDS_P1;SDS_P2;PMS_P1;PMS_P2;Temp;Humidity;BMP_temperature;BMP_pressure;BME280_temperature;BME280_humidity;BME280_pressure;Samples;Min_cycle;Max_cycle;Signal;HPM_P1;HPM_P2
2023/04/11 00:05:23;;;;;;;27.90;21.00;;;;;;;4.70;84.24;99632.90;436423;1251;139786;-70
2023/04/11 00:15:31;;;;;;;25.60;19.20;;;;;;;4.50;84.40;99622.40;436522;1254;140248;-71
2023/04/11 00:25:37;;;;;;;27.80;19.90;;;;;;;4.36;85.21;99611.30;436463;1253;139686;-71
2023/04/11 00:35:43;;;;;;;34.80;25.70;;;;;;;4.30;86.24;99597.98;436840;1253;139025;-70
2023/04/11 00:45:49;;;;;;;34.70;29.00;;;;;;;4.53;92.54;99585.01;436946;1253;140667;-71
2023/04/11 00:55:55;;;;;;;34.40;27.70;;;;;;;4.78;95.50;99576.06;436801;1251;139959;-70
2023/04/11 01:06:02;;;;;;;28.10;23.50;;;;;;;4.69;95.09;99563.23;436657;1251;139581;-70
2023/04/11 01:16:09;;;;;;;30.60;23.60;;;;;;;4.44;93.97;99559.50;436562;1253;139577;-69
2023/04/11 01:26:16;;;;;;;31.90;24.10;;;;;;;4.22;92.67;99553.23;437056;1253;139975;-70
2023/04/11 01:36:22;;;;;;;29.40;23.40;;;;;;;4.08;92.85;99545.45;437295;1253;141550;-70
2023/04/11 01:46:28;;;;;;;29.30;23.80;;;;;;;4.04;93.78;99531.06;436952;1251;139347;-69
2023/04/11 01:56:34;;;;;;;27.00;21.70;;;;;;;4.27;98.25;99518.58;436471;1251;140260;-69
2023/04/11 02:06:39;;;;;;;25.00;19.20;;;;;;;4.24;98.33;99507.61;436611;1253;139728;-70
2023/04/11 02:16:55;;;;;;;24.40;19.20;;;;;;;4.29;99.39;99496.50;436577;1251;139752;-70
2023/04/11 02:27:01;;;;;;;20.00;17.00;;;;;;;4.21;99.23;99475.85;436277;1250;140199;-70
2023/04/11 02:37:07;;;;;;;20.60;15.20;;;;;;;4.46;99.89;99464.97;436200;1253;141274;-70
2023/04/11 02:47:13;;;;;;;16.50;14.80;;;;;;;4.72;100.00;99451.92;436517;1251;139402;-70
2023/04/11 02:57:19;;;;;;;18.40;16.10;;;;;;;4.79;100.00;99440.36;436329;1254;141035;-70
2023/04/11 03:07:25;;;;;;;16.10;14.40;;;;;;;4.96;100.00;99439.32;436782;1254;140532;-70
2023/04/11 03:17:30;;;;;;;;;;;;;;;4.87;100.00;99433.09;437852;1251;140242;-71
2023/04/11 03:27:36;;;;;;;15.90;14.10;;;;;;;4.57;100.00;99430.73;436860;1251;125503;-70
2023/04/11 03:37:41;;;;;;;19.30;17.00;;;;;;;4.28;100.00;99432.45;437213;1254;140310;-71
2023/04/11 03:47:47;;;;;;;18.00;16.00;;;;;;;4.10;100.00;99426.55;437157;1253;140482;-70
2023/04/11 03:57:53;;;;;;;22.60;18.30;;;;;;;4.45;100.00;99409.54;437234;1254;140744;-70
2023/04/11 04:07:59;;;;;;;20.00;17.00;;;;;;;4.81;100.00;99391.55;437174;1253;139920;-69
2023/04/11 04:18:04;;;;;;;16.20;14.40;;;;;;;5.11;100.00;99381.93;437071;1256;139885;-71
2023/04/11 04:28:10;;;;;;;17.20;13.60;;;;;;;5.39;100.00;99364.16;436734;1251;140696;-69
2023/04/11 04:38:17;;;;;;;15.90;13.90;;;;;;;5.67;100.00;99360.83;436534;1251;139942;-70
2023/04/11 04:48:24;;;;;;;15.30;12.60;;;;;;;5.84;100.00;99353.20;436349;1252;182180;-68
2023/04/11 04:58:28;;;;;;;;;;;;;;;6.05;100.00;99344.92;436042;1254;140756;-71
2023/04/11 05:08:34;;;;;;;13.50;12.00;;;;;;;6.32;100.00;99333.70;435897;1256;126958;-69
2023/04/11 05:18:41;;;;;;;12.10;10.80;;;;;;;6.82;100.00;99335.15;450466;1251;141157;-68
2023/04/11 05:28:47;;;;;;;12.70;11.60;;;;;;;11.33;99.11;99311.88;444797;1251;140028;-69
2023/04/11 05:38:52;;;;;;;8.70;7.60;;;;;;;18.31;86.42;99284.62;436545;1251;141365;-69
2023/04/11 05:48:59;;;;;;;7.40;6.60;;;;;;;21.95;72.38;99267.54;436338;1251;140236;-70
2023/04/11 05:59:05;;;;;;;7.80;6.40;;;;;;;23.14;60.85;99256.11;437073;1251;139423;-69
2023/04/11 06:09:12;;;;;;;7.90;6.40;;;;;;;23.71;52.08;99239.27;436261;1253;139129;-68
2023/04/11 06:19:17;;;;;;;;;;;;;;;22.72;50.47;99234.71;438265;1251;140480;-69
2023/04/11 06:29:22;;;;;;;7.00;6.30;;;;;;;24.95;48.15;99226.91;436861;1251;125361;-69
2023/04/11 06:39:29;;;;;;;6.70;6.20;;;;;;;26.76;44.60;99218.45;436704;1251;141014;-69
2023/04/11 06:49:35;;;;;;;9.00;6.70;;;;;;;27.83;41.89;99210.62;436780;1253;140168;-69
2023/04/11 06:59:41;;;;;;;6.10;5.70;;;;;;;29.87;40.81;99200.04;436861;1253;139106;-69
2023/04/11 07:09:46;;;;;;;5.90;5.40;;;;;;;30.40;37.23;99187.68;437057;1252;139768;-74
2023/04/11 07:19:52;;;;;;;5.30;4.90;;;;;;;29.50;36.09;99164.88;436994;1251;138542;-70
2023/04/11 07:29:58;;;;;;;5.30;4.90;;;;;;;29.38;34.88;99153.31;436945;1253;138378;-71
2023/04/11 07:40:10;;;;;;;5.90;5.10;;;;;;;25.08;36.00;99146.24;436895;1252;138814;-72
2023/04/11 07:50:15;;;;;;;5.00;4.50;;;;;;;22.28;38.52;99135.98;437103;1252;138601;-70
2023/04/11 08:00:23;;;;;;;7.20;4.80;;;;;;;20.72;40.64;99117.63;436788;1251;139487;-69
2023/04/11 08:10:29;;;;;;;6.60;4.70;;;;;;;18.72;42.85;99102.00;437398;1254;139433;-69
2023/04/11 08:20:35;;;;;;;5.20;4.70;;;;;;;18.30;44.73;99087.69;436638;1251;139427;-70
2023/04/11 08:30:41;;;;;;;5.30;4.70;;;;;;;18.65;45.18;99072.50;437208;1254;138474;-70
2023/04/11 08:40:47;;;;;;;4.60;3.20;;;;;;;19.77;43.98;99054.88;436972;1251;138647;-70
2023/04/11 08:50:53;;;;;;;4.00;3.70;;;;;;;18.04;44.55;99055.17;436602;1251;139154;-70
2023/04/11 09:01:18;;;;;;;3.80;3.10;;;;;;;17.39;46.03;99034.60;436287;1251;138748;-70
2023/04/11 09:11:26;;;;;;;2.10;1.70;;;;;;;17.28;45.36;99027.52;436666;1253;140570;-70
2023/04/11 09:21:48;;;;;;;2.00;1.80;;;;;;;16.93;46.00;99020.71;436837;1253;139395;-70
2023/04/11 09:31:53;;;;;;;1.80;1.70;;;;;;;16.94;45.92;99017.05;436712;1251;139944;-70
2023/04/11 09:41:59;;;;;;;3.20;1.80;;;;;;;16.50;46.67;99002.32;436748;1250;138352;-69
2023/04/11 09:52:06;;;;;;;2.90;1.90;;;;;;;16.65;46.23;98986.13;437093;1253;138465;-71
2023/04/11 10:02:12;;;;;;;2.50;1.70;;;;;;;17.15;46.19;98972.73;436485;1251;139011;-71
2023/04/11 10:12:34;;;;;;;1.90;1.80;;;;;;;16.99;45.42;98953.88;436768;1251;139739;-69
2023/04/11 10:23:00;;;;;;;2.70;2.30;;;;;;;16.97;45.44;98931.20;436824;1250;139702;-69
2023/04/11 10:33:14;;;;;;;3.40;2.00;;;;;;;16.56;45.73;98927.38;437021;1251;138597;-71
2023/04/11 10:43:21;;;;;;;2.80;2.60;;;;;;;16.15;46.08;98915.83;436882;1251;139357;-69
2023/04/11 10:53:38;;;;;;;2.80;2.10;;;;;;;15.76;46.55;98892.76;436893;1253;153908;-70
2023/04/11 11:03:52;;;;;;;2.50;2.30;;;;;;;15.89;47.74;98881.37;436629;1250;139255;-70
2023/04/11 11:13:59;;;;;;;3.00;2.50;;;;;;;16.09;46.50;98875.02;436855;1252;138819;-70
2023/04/11 11:24:06;;;;;;;2.40;1.90;;;;;;;15.82;47.29;98862.70;437175;1251;139032;-71
2023/04/11 11:34:13;;;;;;;1.30;1.20;;;;;;;16.05;46.76;98848.42;436783;1253;139908;-70
2023/04/11 11:44:30;;;;;;;2.00;1.40;;;;;;;16.23;45.40;98847.42;436805;1251;140920;-70
2023/04/11 11:54:45;;;;;;;1.40;1.30;;;;;;;16.22;44.78;98844.21;437263;1253;138396;-69
2023/04/11 12:04:56;;;;;;;1.90;1.30;;;;;;;16.21;44.75;98839.51;437228;1250;138956;-70
2023/04/11 12:15:03;;;;;;;1.30;1.20;;;;;;;15.82;44.29;98826.55;437215;1250;140800;-68
2023/04/11 12:25:11;;;;;;;1.40;1.30;;;;;;;15.73;44.33;98812.04;437541;1253;141271;-69
2023/04/11 12:35:17;;;;;;;1.70;1.60;;;;;;;15.74;44.32;98799.79;437620;1253;140949;-70
2023/04/11 12:45:23;;;;;;;2.70;2.30;;;;;;;15.79;44.91;98787.97;436602;1249;138751;-70
2023/04/11 12:55:29;;;;;;;2.30;2.10;;;;;;;15.34;45.01;98770.94;436950;1251;139935;-70
2023/04/11 13:05:36;;;;;;;2.40;2.10;;;;;;;14.77;45.42;98761.75;437721;1250;138527;-71
2023/04/11 13:15:41;;;;;;;4.10;2.20;;;;;;;14.76;46.02;98750.23;436765;1251;138981;-70
2023/04/11 13:25:47;;;;;;;3.00;2.80;;;;;;;14.78;45.91;98735.41;437035;1253;139165;-69
2023/04/11 13:35:53;;;;;;;2.80;2.50;;;;;;;14.81;46.16;98727.59;438210;1250;138960;-69
2023/04/11 13:45:59;;;;;;;2.90;2.60;;;;;;;14.75;46.41;98721.44;436657;1253;140644;-70
2023/04/11 13:56:06;;;;;;;5.30;3.70;;;;;;;14.92;46.81;98708.05;436998;1249;140086;-70
2023/04/11 14:06:12;;;;;;;4.30;3.10;;;;;;;14.94;46.94;98693.55;437211;1253;139362;-70
2023/04/11 14:16:18;;;;;;;3.50;3.00;;;;;;;15.08;47.22;98681.45;436711;1253;138423;-70
2023/04/11 14:26:24;;;;;;;3.30;2.90;;;;;;;15.07;46.82;98671.80;436625;1251;140211;-71
2023/04/11 14:36:30;;;;;;;5.20;3.20;;;;;;;14.89;47.20;98665.30;437166;1251;140550;-69
2023/04/11 14:46:36;;;;;;;3.80;3.50;;;;;;;14.68;47.19;98660.77;436741;1250;138987;-70
2023/04/11 14:56:42;;;;;;;4.50;3.50;;;;;;;14.40;47.67;98661.70;436566;1253;139873;-69
2023/04/11 15:06:48;;;;;;;4.20;3.80;;;;;;;14.26;47.99;98653.12;436783;1250;139420;-70
2023/04/11 15:16:54;;;;;;;5.60;4.70;;;;;;;14.13;48.31;98647.27;436695;1251;138452;-70
2023/04/11 15:27:00;;;;;;;3.50;3.20;;;;;;;14.04;48.69;98642.67;436414;1253;139919;-69
2023/04/11 15:37:10;;;;;;;4.10;3.70;;;;;;;13.85;48.98;98627.30;436359;1251;139252;-71
2023/04/11 15:47:17;;;;;;;6.90;5.10;;;;;;;13.67;49.68;98619.66;437244;1251;138996;-70
2023/04/11 15:57:22;;;;;;;7.20;5.60;;;;;;;13.46;50.53;98614.36;436643;1251;139315;-70
2023/04/11 16:07:28;;;;;;;5.10;4.00;;;;;;;13.06;52.30;98654.11;436976;1251;140024;-70
2023/04/11 16:17:34;;;;;;;7.70;5.30;;;;;;;11.86;55.89;98700.49;436919;1251;139557;-72
2023/04/11 16:27:40;;;;;;;13.30;10.90;;;;;;;11.04;60.78;98705.23;437044;1253;138588;-69
2023/04/11 16:37:45;;;;;;;14.90;12.60;;;;;;;10.65;64.20;98728.23;437143;1251;140653;-69
2023/04/11 16:47:51;;;;;;;13.80;9.80;;;;;;;10.26;66.45;98738.63;437014;1253;140622;-69
2023/04/11 16:57:57;;;;;;;9.40;7.80;;;;;;;9.89;67.60;98749.98;437188;1253;140487;-69
2023/04/11 17:08:03;;;;;;;7.80;6.60;;;;;;;9.62;68.61;98744.79;437262;1251;139598;-70
2023/04/11 17:18:09;;;;;;;8.40;6.30;;;;;;;9.21;69.45;98755.81;437009;1253;139623;-69
2023/04/11 17:28:15;;;;;;;8.00;7.20;;;;;;;9.07;70.49;98768.96;436935;1253;139697;-69
2023/04/11 17:38:20;;;;;;;8.40;7.50;;;;;;;8.91;71.13;98789.52;436829;1251;140423;-70
2023/04/11 17:48:26;;;;;;;8.20;6.10;;;;;;;8.75;71.43;98800.55;436928;1253;140243;-70
2023/04/11 17:58:32;;;;;;;8.20;6.10;;;;;;;8.61;72.15;98808.28;436840;1250;139494;-70
2023/04/11 18:08:38;;;;;;;7.50;6.70;;;;;;;8.39;72.45;98828.02;436434;1253;141601;-70
2023/04/11 18:18:56;;;;;;;6.80;6.00;;;;;;;8.24;73.18;98838.27;436649;1253;141154;-69
2023/04/11 18:29:02;;;;;;;6.70;6.00;;;;;;;8.18;73.68;98844.63;436794;1251;139151;-70
2023/04/11 18:39:08;;;;;;;7.70;5.90;;;;;;;8.16;73.94;98850.65;436425;1253;140462;-69
2023/04/11 18:49:14;;;;;;;6.30;5.60;;;;;;;8.02;74.12;98856.45;436640;1253;139066;-71
2023/04/11 18:59:24;;;;;;;5.90;5.30;;;;;;;7.90;74.93;98859.30;436994;1253;138753;-70
2023/04/11 19:09:34;;;;;;;6.40;5.70;;;;;;;7.75;75.71;98856.22;437425;1253;139555;-69
2023/04/11 19:19:39;;;;;;;6.80;5.40;;;;;;;7.51;76.87;98850.61;437255;1251;139558;-70
2023/04/11 19:29:45;;;;;;;5.10;4.30;;;;;;;7.27;78.04;98849.48;437365;1251;138533;-70
2023/04/11 19:39:51;;;;;;;4.10;3.60;;;;;;;7.08;78.79;98840.90;437404;1251;140301;-69
2023/04/11 19:49:59;;;;;;;3.70;2.60;;;;;;;6.92;79.51;98843.61;436956;1253;139120;-69
2023/04/11 20:00:11;;;;;;;3.90;3.00;;;;;;;6.70;80.43;98849.98;437547;1254;140086;-69
2023/04/11 20:10:18;;;;;;;4.90;3.00;;;;;;;6.58;80.79;98860.20;436855;1251;139848;-69
2023/04/11 20:20:26;;;;;;;3.60;2.90;;;;;;;6.59;81.23;98882.59;436737;1253;140790;-70
2023/04/11 20:30:32;;;;;;;3.40;3.10;;;;;;;6.52;81.55;98893.30;436658;1251;140078;-68
2023/04/11 20:40:39;;;;;;;3.20;2.60;;;;;;;6.50;82.38;98889.40;436133;1251;141200;-69
2023/04/11 20:50:46;;;;;;;3.80;2.50;;;;;;;6.55;82.65;98886.87;436215;1250;139117;-68
2023/04/11 21:00:52;;;;;;;3.10;2.80;;;;;;;6.45;82.86;98880.12;436617;1254;140452;-68
2023/04/11 21:11:00;;;;;;;3.30;2.80;;;;;;;6.25;83.31;98871.17;436890;1254;138677;-68
2023/04/11 21:21:09;;;;;;;3.80;3.30;;;;;;;6.13;84.30;98877.05;436434;1251;139744;-69
2023/04/11 21:31:15;;;;;;;3.90;3.50;;;;;;;6.04;85.35;98876.67;436940;1253;140636;-70
2023/04/11 21:41:21;;;;;;;5.00;3.80;;;;;;;5.94;86.30;98879.50;436351;1250;138904;-69
2023/04/11 21:51:27;;;;;;;4.30;3.90;;;;;;;5.94;87.47;98871.51;436030;1254;139349;-68
2023/04/11 22:01:33;;;;;;;11.00;5.20;;;;;;;5.90;88.88;98869.27;436010;1254;139778;-69
2023/04/11 22:11:39;;;;;;;5.30;4.80;;;;;;;5.91;89.98;98866.83;435779;1251;140020;-68
2023/04/11 22:21:47;;;;;;;6.40;5.60;;;;;;;5.99;91.42;98869.87;435963;1254;139082;-68
2023/04/11 22:31:53;;;;;;;8.00;7.10;;;;;;;6.11;92.60;98871.79;436239;1253;141049;-68
2023/04/11 22:41:59;;;;;;;13.10;9.70;;;;;;;6.21;93.05;98878.88;436062;1254;139270;-67
2023/04/11 22:52:05;;;;;;;13.70;10.70;;;;;;;6.28;93.29;98884.93;435695;1254;185834;-68
2023/04/11 23:02:11;;;;;;;13.50;11.20;;;;;;;6.33;93.40;98882.89;435492;1251;139820;-68
2023/04/11 23:12:16;;;;;;;20.00;14.80;;;;;;;6.35;93.35;98881.56;435535;1253;140669;-65
2023/04/11 23:22:22;;;;;;;18.20;15.00;;;;;;;6.26;93.36;98876.70;435417;1255;140272;-67
2023/04/11 23:32:28;;;;;;;16.30;14.40;;;;;;;6.20;93.82;98863.80;435863;1256;140746;-66
2023/04/11 23:42:34;;;;;;;16.30;14.10;;;;;;;6.10;94.07;98849.30;435938;1254;139839;-65
2023/04/11 23:52:40;;;;;;;14.00;11.50;;;;;;;6.00;94.07;98848.58;435818;1254;141418;-65
